createdAt,value
2022-10-22T00:01:09.558Z,17.2
2022-10-22T00:03:11.822Z,14.5
2022-10-22T00:05:16.970Z,25.3
2022-10-22T00:07:19.059Z,24.2
2022-10-22T00:09:21.266Z,11.8
2022-10-22T00:16:30.334Z,8.3
2022-10-22T00:18:35.559Z,11.9
2022-10-22T00:24:42.123Z,16.4
2022-10-22T00:26:44.309Z,19.6
2022-10-22T00:30:48.700Z,15
2022-10-22T00:34:56.175Z,10.7
2022-10-22T00:39:00.381Z,10.8
2022-10-22T00:43:04.538Z,14
2022-10-22T00:45:06.634Z,10.3
2022-10-22T00:47:11.924Z,12.4
2022-10-22T00:49:14.008Z,22.7
2022-10-22T00:51:16.103Z,25.7
2022-10-22T00:53:18.224Z,14.7
2022-10-22T00:55:20.384Z,12.5
2022-10-22T00:57:22.571Z,16.2
2022-10-22T00:59:24.769Z,19.3
2022-10-22T01:01:30.159Z,19.6
2022-10-22T01:03:32.262Z,21.3
2022-10-22T01:05:34.330Z,21.3
2022-10-22T01:06:36.981Z,12
2022-10-22T01:08:39.177Z,23.1
2022-10-22T01:10:41.312Z,23.6
2022-10-22T01:12:43.629Z,29
2022-10-22T01:14:48.792Z,24.6
2022-10-22T01:16:50.928Z,19.3
2022-10-22T01:18:53.025Z,15.4
2022-10-22T01:20:55.200Z,21.5
2022-10-22T01:22:57.281Z,21.9
2022-10-22T01:25:01.007Z,32.8
2022-10-22T01:29:08.287Z,22.4
2022-10-22T01:31:10.471Z,13.3
2022-10-22T01:33:12.637Z,17.3
2022-10-22T01:35:14.842Z,18
2022-10-22T01:37:16.931Z,18.3
2022-10-22T01:39:19.120Z,16.4
2022-10-22T01:41:21.201Z,17.2
2022-10-22T01:43:26.631Z,21.5
2022-10-22T01:45:28.860Z,16.6
2022-10-22T01:47:31.050Z,17
2022-10-22T01:49:33.138Z,32.4
2022-10-22T01:51:35.320Z,33.7
2022-10-22T01:53:37.518Z,23.1
2022-10-22T01:55:39.580Z,17.3
2022-10-22T01:57:44.887Z,22.1
2022-10-22T01:59:47.002Z,21
2022-10-22T02:01:49.201Z,23.7
2022-10-22T02:02:52.090Z,27.3
2022-10-22T02:04:54.095Z,27.3
2022-10-22T02:08:58.350Z,18.4
2022-10-22T02:11:03.669Z,29.8
2022-10-22T02:13:05.847Z,20.4
2022-10-22T02:15:07.948Z,24.5
2022-10-22T02:19:12.313Z,27.3
2022-10-22T02:21:14.522Z,21.2
2022-10-22T02:23:16.697Z,39.1
2022-10-22T02:25:22.129Z,21.8
2022-10-22T02:27:26.856Z,20.2
2022-10-22T02:29:26.481Z,21.7
2022-10-22T02:31:28.674Z,33
2022-10-22T02:33:30.836Z,38.7
2022-10-22T02:49:51.508Z,34.3
2022-10-22T02:51:53.574Z,32.2
2022-10-22T02:53:58.977Z,28
2022-10-22T02:56:01.154Z,35.9
2022-10-22T03:00:32.146Z,35.2
2022-10-22T03:02:34.280Z,36.7
2022-10-22T03:04:36.477Z,28.8
2022-10-22T03:06:41.890Z,36.8
2022-10-22T03:08:44.001Z,30.5
2022-10-22T03:10:46.040Z,27.7
2022-10-22T03:12:48.231Z,34.4
2022-10-22T03:14:50.389Z,34.7
2022-10-22T03:16:52.570Z,34.6
2022-10-22T03:18:54.733Z,28.7
2022-10-22T03:21:00.142Z,36.1
2022-10-22T03:23:02.331Z,29.4
2022-10-22T03:25:04.516Z,28
2022-10-22T03:27:06.653Z,23.3
2022-10-22T03:29:08.751Z,32.7
2022-10-22T03:31:10.937Z,43.5
2022-10-22T03:33:13.105Z,33.9
2022-10-22T03:35:18.509Z,46.5
2022-10-22T03:37:20.725Z,44.6
2022-10-22T03:39:22.878Z,47.3
2022-10-22T03:41:24.935Z,50.7
2022-10-22T03:43:27.074Z,54.1
2022-10-22T03:45:29.235Z,35.3
2022-10-22T03:47:31.341Z,39.8
2022-10-22T03:49:36.766Z,36.9
2022-10-22T03:51:38.949Z,39.3
2022-10-22T03:53:41.098Z,41.9
2022-10-22T03:54:43.816Z,45.2
2022-10-22T03:56:45.884Z,38.7
2022-10-22T04:00:50.288Z,53.5
2022-10-22T04:02:55.528Z,50.5
2022-10-22T04:04:57.605Z,46.1
2022-10-22T04:06:59.771Z,55.6
2022-10-22T04:09:01.987Z,51.3
2022-10-22T04:11:04.115Z,58.6
2022-10-22T04:13:06.283Z,53.4
2022-10-22T04:15:08.439Z,50.9
2022-10-22T04:17:13.855Z,52.6
2022-10-22T04:19:15.913Z,41.6
2022-10-22T04:21:18.006Z,46.7
2022-10-22T04:23:20.135Z,54.9
2022-10-22T04:25:22.337Z,60.2
2022-10-22T04:27:24.479Z,45.4
2022-10-22T04:29:26.625Z,52.8
2022-10-22T04:31:32.078Z,56.7
2022-10-22T04:33:34.101Z,59
2022-10-22T04:41:42.745Z,61
2022-10-22T04:43:44.808Z,42
2022-10-22T04:45:50.177Z,53.3
2022-10-22T04:47:52.303Z,39.7
2022-10-22T04:50:57.065Z,56.1
2022-10-22T04:55:01.415Z,43
2022-10-22T04:57:03.585Z,37.1
2022-10-22T04:59:08.910Z,51.2
2022-10-22T05:01:11.153Z,46.2
2022-10-22T05:03:13.348Z,45.3
2022-10-22T05:05:15.505Z,51.1
2022-10-22T05:07:17.700Z,56.8
2022-10-22T05:09:19.969Z,45.7
2022-10-22T05:11:22.026Z,46.8
2022-10-22T05:13:27.348Z,42.6
2022-10-22T05:15:29.495Z,42.7
2022-10-22T05:17:31.577Z,39.2
2022-10-22T05:19:33.775Z,44.8
2022-10-22T05:21:35.933Z,38.6
2022-10-22T05:23:38.131Z,52.9
2022-10-22T05:25:40.297Z,48.4
2022-10-22T05:27:45.691Z,53.4
2022-10-22T05:31:49.953Z,53.4
2022-10-22T05:33:52.033Z,73.6
2022-10-22T05:40:12.381Z,40.4
2022-10-22T05:42:03.957Z,37.5
2022-10-22T05:44:06.120Z,49.9
2022-10-22T05:47:10.997Z,40.2
2022-10-22T05:49:13.194Z,32.5
2022-10-22T05:51:15.364Z,51
2022-10-22T05:53:17.542Z,39.4
2022-10-22T05:55:22.969Z,40.1
2022-10-22T05:57:25.169Z,34.4
2022-10-22T05:59:27.336Z,44.3
2022-10-22T06:01:29.396Z,61.1
2022-10-22T06:03:31.704Z,38.5
2022-10-22T06:05:33.643Z,49.7
2022-10-22T06:07:35.778Z,46.3
2022-10-22T06:09:41.133Z,56.4
2022-10-22T06:11:43.226Z,30.9
2022-10-22T06:13:45.314Z,68.5
2022-10-22T06:15:47.381Z,36.9
2022-10-22T06:17:49.665Z,54.9
2022-10-22T06:19:51.917Z,42.9
2022-10-22T06:21:53.946Z,42.6
2022-10-22T06:23:59.344Z,27
2022-10-22T06:26:01.434Z,35.3
2022-10-22T06:28:03.620Z,32.5
2022-10-22T06:30:05.711Z,44.4
2022-10-22T06:36:12.072Z,32.5
2022-10-22T06:38:17.286Z,24.4
2022-10-22T06:42:21.459Z,51.8
2022-10-22T06:44:50.340Z,30.7
2022-10-22T06:46:52.390Z,35.5
2022-10-22T06:48:54.588Z,27.1
2022-10-22T06:51:00.019Z,21.9
2022-10-22T06:53:02.093Z,34.2
2022-10-22T06:55:04.197Z,25.8
2022-10-22T06:57:06.268Z,24.3
2022-10-22T06:59:08.476Z,30.8
2022-10-22T07:01:10.594Z,30.2
2022-10-22T07:03:12.636Z,34.4
2022-10-22T07:05:17.845Z,31.2
2022-10-22T07:07:19.968Z,17.3
2022-10-22T07:09:22.162Z,24.1
2022-10-22T07:11:24.119Z,19.1
2022-10-22T07:13:26.209Z,20.8
2022-10-22T07:15:28.322Z,16
2022-10-22T07:21:39.247Z,22.1
2022-10-22T07:23:41.348Z,14.3
2022-10-22T07:25:43.552Z,22.6
2022-10-22T07:27:45.514Z,33.7
2022-10-22T07:29:47.623Z,13.6
2022-10-22T07:31:49.694Z,15.5
2022-10-22T07:33:54.941Z,28.3
2022-10-22T07:35:57.018Z,19.2
2022-10-22T07:37:59.129Z,17.4
2022-10-22T07:39:01.774Z,17.2
2022-10-22T07:41:03.834Z,12
2022-10-22T07:43:05.952Z,19.9
2022-10-22T07:45:08.053Z,26
2022-10-22T07:47:13.264Z,13.5
2022-10-22T07:51:17.475Z,17.8
2022-10-22T07:55:21.675Z,16.2
2022-10-22T07:57:23.759Z,9.6
2022-10-22T07:59:25.862Z,17.1
2022-10-22T08:01:31.174Z,16.1
2022-10-22T08:03:33.208Z,19.1
2022-10-22T08:11:41.592Z,11.1
2022-10-22T08:13:45.542Z,7
2022-10-22T08:15:50.469Z,18
2022-10-22T08:17:51.049Z,14.9
2022-10-22T08:19:53.175Z,15.3
2022-10-22T08:21:55.271Z,15.5
2022-10-22T08:23:57.423Z,6.8
2022-10-22T08:25:59.468Z,17.9
2022-10-22T08:28:01.575Z,14.6
2022-10-22T08:30:06.826Z,15.9
2022-10-22T08:32:08.912Z,10.8
2022-10-22T08:34:11.035Z,20.5
2022-10-22T08:35:16.795Z,14.1
2022-10-22T08:37:15.740Z,11.5
2022-10-22T08:39:17.863Z,12.4
2022-10-22T08:47:29.412Z,16.1
2022-10-22T08:49:31.517Z,8.3
2022-10-22T08:51:33.610Z,23
2022-10-22T08:53:35.718Z,15
2022-10-22T09:07:53.627Z,14.7
2022-10-22T09:09:55.735Z,13.7
2022-10-22T09:12:00.996Z,15.4
2022-10-22T09:14:03.197Z,11.3
2022-10-22T09:16:05.213Z,15.5
2022-10-22T09:22:11.531Z,12.5
2022-10-22T09:24:13.667Z,9.7
2022-10-22T09:26:18.902Z,9.5
2022-10-22T09:28:21.024Z,15.8
2022-10-22T09:30:23.130Z,10.6
2022-10-22T09:31:25.761Z,12.9
2022-10-22T09:33:27.885Z,13.1
2022-10-22T09:35:29.962Z,5
2022-10-22T09:37:32.088Z,12.8
2022-10-22T09:39:37.327Z,10.4
2022-10-22T09:41:39.438Z,14.9
2022-10-22T09:43:41.530Z,6.9
2022-10-22T09:45:43.647Z,8.1
2022-10-22T09:48:01.032Z,20.3
2022-10-22T09:49:47.870Z,7.5
2022-10-22T09:51:49.976Z,14.7
2022-10-22T09:53:55.309Z,22.1
2022-10-22T09:55:57.355Z,9.4
2022-10-22T09:57:59.456Z,13.1
2022-10-22T10:00:01.595Z,9.7
2022-10-22T10:02:13.702Z,10.1
2022-10-22T10:04:09.342Z,10.2
2022-10-22T10:06:07.621Z,13.4
2022-10-22T10:08:12.858Z,14.8
2022-10-22T10:10:15.011Z,14.1
2022-10-22T10:12:17.089Z,5.8
2022-10-22T10:14:19.201Z,11.2
2022-10-22T10:16:21.327Z,22.9
2022-10-22T10:18:23.424Z,16.7
2022-10-22T10:20:25.542Z,31.9
2022-10-22T10:24:32.912Z,8.7
2022-10-22T10:26:35.014Z,14.2
2022-10-22T10:29:03.646Z,15.4
2022-10-22T10:31:05.816Z,17
2022-10-22T10:33:07.956Z,9.7
2022-10-22T10:35:13.203Z,9.4
2022-10-22T10:37:15.302Z,11.6
2022-10-22T10:39:17.428Z,14.4
2022-10-22T10:41:19.536Z,12.8
2022-10-22T10:43:21.651Z,9.6
2022-10-22T10:45:23.771Z,17
2022-10-22T10:47:25.888Z,17.5
2022-10-22T10:49:31.144Z,5.8
2022-10-22T10:51:33.256Z,12.7
2022-10-22T10:53:35.357Z,13
2022-10-22T10:55:37.471Z,14.3
2022-10-22T10:59:41.703Z,21.9
2022-10-22T11:01:43.904Z,18.6
2022-10-22T11:05:51.172Z,11.4
2022-10-22T11:07:55.779Z,12.9
2022-10-22T11:09:55.409Z,6.8
2022-10-22T11:11:57.511Z,20
2022-10-22T11:13:59.614Z,26.8
2022-10-22T11:16:01.728Z,14.5
2022-10-22T11:18:07.002Z,9.8
2022-10-22T11:20:09.105Z,6
2022-10-22T11:22:11.209Z,10
2022-10-22T11:23:19.626Z,18.8
2022-10-22T11:25:15.965Z,12.7
2022-10-22T11:27:18.067Z,8
2022-10-22T11:29:20.179Z,8.8
2022-10-22T11:31:25.431Z,12.8
2022-10-22T11:35:29.666Z,16.8
2022-10-22T11:37:31.780Z,22.1
2022-10-22T11:39:33.902Z,10.1
2022-10-22T11:41:36.005Z,6.2
2022-10-22T11:43:38.131Z,6.5
2022-10-22T11:45:43.397Z,6.1
2022-10-22T11:47:45.519Z,12.1
2022-10-22T11:51:49.752Z,11
2022-10-22T11:53:51.856Z,13
2022-10-22T11:55:53.962Z,7.4
2022-10-22T11:57:56.077Z,15
2022-10-22T12:00:01.375Z,8.5
2022-10-22T12:02:03.465Z,9.1
2022-10-22T12:04:05.589Z,7.3
2022-10-22T12:06:07.690Z,12.4
2022-10-22T12:08:14.793Z,9.4
2022-10-22T12:10:13.836Z,5.9
2022-10-22T12:12:14.035Z,4
2022-10-22T12:14:19.275Z,10.9
2022-10-22T12:16:32.151Z,11.6
2022-10-22T12:18:23.521Z,7.7
2022-10-22T12:25:35.768Z,5.5
2022-10-22T12:27:37.970Z,9.6
2022-10-22T12:31:41.967Z,14.1
2022-10-22T12:33:44.081Z,19.5
2022-10-22T12:35:46.212Z,8.6
2022-10-22T12:37:48.313Z,5.6
2022-10-22T12:39:50.445Z,9.7
2022-10-22T12:41:55.691Z,7.7
2022-10-22T12:43:57.812Z,4.1
2022-10-22T12:48:02.031Z,8.2
2022-10-22T12:50:04.183Z,9.4
2022-10-22T12:52:08.651Z,3.7
2022-10-22T12:54:08.404Z,10.2
2022-10-22T12:56:13.668Z,10.9
2022-10-22T12:58:15.788Z,14
2022-10-22T13:00:17.878Z,12.6
2022-10-22T13:02:19.995Z,12.9
2022-10-22T13:04:22.118Z,10.8
2022-10-22T13:06:24.242Z,13.5
2022-10-22T13:08:26.525Z,16.5
2022-10-22T13:10:32.058Z,18.4
2022-10-22T13:12:34.412Z,10
2022-10-22T13:14:36.314Z,13.6
2022-10-22T13:17:41.440Z,6.9
2022-10-22T13:19:43.179Z,7.5
2022-10-22T13:21:45.305Z,6.6
2022-10-22T13:25:52.680Z,22.5
2022-10-22T13:27:54.803Z,13.8
2022-10-22T13:29:56.917Z,10.1
2022-10-22T13:31:59.035Z,7.7
2022-10-22T13:34:03.569Z,7
2022-10-22T13:36:03.267Z,10.9
2022-10-22T13:40:11.222Z,14.4
2022-10-22T13:42:12.772Z,13.8
2022-10-22T13:44:14.911Z,18.4
2022-10-22T13:46:17.018Z,10.8
2022-10-22T13:48:19.144Z,8.5
2022-10-22T13:50:21.266Z,22.9
2022-10-22T13:52:26.490Z,13.9
2022-10-22T13:54:28.617Z,19.3
2022-10-22T13:56:30.745Z,13.6
2022-10-22T13:58:32.848Z,17.5
2022-10-22T14:00:35.071Z,7.5
2022-10-22T14:02:37.083Z,11.1
2022-10-22T14:04:39.212Z,13.5
2022-10-22T14:06:44.476Z,8.9
2022-10-22T14:08:46.670Z,22
2022-10-22T14:10:48.710Z,13.2
2022-10-22T14:13:17.314Z,15.9
2022-10-22T14:19:26.840Z,7.4
2022-10-22T14:25:33.198Z,17.9
2022-10-22T14:29:37.438Z,19.3
2022-10-22T14:39:51.197Z,23.6
2022-10-22T14:41:53.298Z,9.7
2022-10-22T14:43:55.409Z,11.3
2022-10-22T14:45:57.518Z,12.9
2022-10-22T14:48:02.800Z,22.3
2022-10-22T14:50:04.923Z,5.4
2022-10-22T14:52:09.547Z,11.6
2022-10-22T14:54:09.167Z,9.3
2022-10-22T14:56:11.271Z,16.8
2022-10-22T14:58:13.375Z,7.9
2022-10-22T15:00:15.482Z,18.5
2022-10-22T15:02:20.747Z,14.6
2022-10-22T15:04:22.885Z,10.1
2022-10-22T15:06:24.996Z,13.4
2022-10-22T15:07:27.612Z,18.3
2022-10-22T15:09:29.745Z,13.2
2022-10-22T15:11:31.855Z,10.1
2022-10-22T15:13:33.995Z,17.3
2022-10-22T15:15:39.759Z,18.6
2022-10-22T15:17:41.630Z,16.3
2022-10-22T15:19:43.482Z,19.4
2022-10-22T15:21:45.763Z,14.7
2022-10-22T15:23:47.750Z,20.2
2022-10-22T15:29:57.331Z,14.1
2022-10-22T15:36:03.609Z,20.4
2022-10-22T15:38:05.731Z,12.3
2022-10-22T15:40:07.851Z,11.1
2022-10-22T15:44:15.225Z,20.3
2022-10-22T15:46:17.342Z,9.4
2022-10-22T15:52:23.699Z,14.5
2022-10-22T15:54:25.829Z,19.8
2022-10-22T15:56:27.951Z,10.7
2022-10-22T15:58:33.202Z,20.2
2022-10-22T16:00:35.385Z,18.7
2022-10-22T16:02:37.445Z,21.3
2022-10-22T16:03:40.086Z,14.9
2022-10-22T16:05:42.183Z,21.6
2022-10-22T16:07:44.533Z,12
2022-10-22T16:09:46.446Z,28.9
2022-10-22T16:13:53.812Z,16.6
2022-10-22T16:15:55.920Z,23.8
2022-10-22T16:17:58.038Z,20.2
2022-10-22T16:20:00.374Z,24.1
2022-10-22T16:22:02.301Z,22.2
2022-10-22T16:24:06.293Z,26.3
2022-10-22T16:26:09.661Z,22.4
2022-10-22T16:28:11.791Z,15.7
2022-10-22T16:30:13.911Z,20.7
2022-10-22T16:32:16.002Z,15.2
2022-10-22T16:34:18.123Z,25.6
2022-10-22T16:36:20.243Z,20.1
2022-10-22T16:38:22.363Z,25.6
2022-10-22T16:40:27.609Z,29.1
2022-10-22T16:42:29.729Z,26.2
2022-10-22T16:44:31.851Z,20.1
2022-10-22T16:46:33.962Z,20.1
2022-10-22T16:48:36.067Z,22.8
2022-10-22T16:50:38.190Z,19.7
2022-10-22T16:52:40.316Z,22.1
2022-10-22T16:54:45.542Z,26.6
2022-10-22T16:56:47.639Z,23.1
2022-10-22T16:58:49.759Z,19
2022-10-22T16:59:52.374Z,21.7
2022-10-22T17:03:56.611Z,46.8
2022-10-22T17:05:58.730Z,27
2022-10-22T17:12:08.183Z,26.9
2022-10-22T17:14:10.307Z,25.4
2022-10-22T17:16:12.415Z,35.2
2022-10-22T17:18:14.553Z,21.1
2022-10-22T17:20:16.669Z,27.6
2022-10-22T17:22:21.894Z,19
2022-10-22T17:24:24.012Z,32.4
2022-10-22T17:26:26.143Z,29.3
2022-10-22T17:28:28.232Z,18.6
2022-10-22T17:30:30.357Z,27.5
2022-10-22T17:32:32.472Z,33.8
2022-10-22T17:34:34.621Z,31.8
2022-10-22T17:36:39.831Z,33.3
2022-10-22T17:38:41.929Z,25.8
2022-10-22T17:40:44.075Z,35.1
2022-10-22T17:44:48.288Z,26.5
2022-10-22T17:48:52.511Z,46.9
2022-10-22T17:50:59.283Z,27.3
2022-10-22T17:52:59.862Z,29.3
2022-10-22T17:55:01.991Z,35.5
2022-10-22T17:57:30.637Z,29.5
2022-10-22T17:59:32.743Z,31.2
2022-10-22T18:11:48.512Z,53.8
2022-10-22T18:15:52.731Z,56.3
2022-10-22T18:17:57.950Z,57.7
2022-10-22T18:20:00.090Z,58.9
2022-10-22T18:22:02.278Z,80.2
2022-10-22T18:24:04.384Z,53.1
2022-10-22T18:26:06.480Z,46.6
2022-10-22T18:28:08.584Z,50.2
2022-10-22T18:30:10.693Z,58.8
2022-10-22T18:32:16.029Z,51.5
2022-10-22T18:34:20.390Z,44.7
2022-10-22T18:36:20.310Z,57.8
2022-10-22T18:38:22.392Z,51.6
2022-10-22T18:40:24.505Z,46.1
2022-10-22T18:42:29.195Z,61.3
2022-10-22T18:44:28.786Z,62.5
2022-10-22T18:46:34.237Z,70.7
2022-10-22T18:48:36.427Z,53.8
2022-10-22T18:50:38.628Z,72.6
2022-10-22T18:51:41.335Z,59.7
2022-10-22T18:53:53.724Z,49.3
2022-10-22T18:55:45.650Z,72
2022-10-22T18:59:57.119Z,59.9
2022-10-22T19:01:56.820Z,64.6
2022-10-22T19:03:58.906Z,61.4
2022-10-22T19:06:01.104Z,67.3
2022-10-22T19:08:03.303Z,54.5
2022-10-22T19:14:13.017Z,45.3
2022-10-22T19:22:21.579Z,65.6
2022-10-22T19:24:23.766Z,56.9
2022-10-22T19:26:25.969Z,58
2022-10-22T19:28:31.390Z,72.5
2022-10-22T19:30:33.566Z,70
2022-10-22T19:32:35.667Z,60
2022-10-22T19:34:37.769Z,55.3
2022-10-22T19:36:39.843Z,52.7
2022-10-22T19:38:42.040Z,67.8
2022-10-22T19:40:44.226Z,65.7
2022-10-22T19:42:49.566Z,49.2
2022-10-22T19:44:51.758Z,57.7
2022-10-22T19:46:53.950Z,50.9
2022-10-22T19:49:58.841Z,57.9
2022-10-22T19:52:01.016Z,60.3
2022-10-22T19:54:03.219Z,59.3
2022-10-22T19:56:08.619Z,62.9
2022-10-22T19:58:10.829Z,56.9
2022-10-22T20:00:12.984Z,48.2
2022-10-22T20:02:15.179Z,64.2
2022-10-22T20:04:17.371Z,76.1
2022-10-22T20:06:19.445Z,51.7
2022-10-22T20:08:21.619Z,68.7
2022-10-22T20:10:26.940Z,49.7
2022-10-22T20:12:29.124Z,67.3
2022-10-22T20:14:31.313Z,45.6
2022-10-22T20:16:33.382Z,124.5
2022-10-22T20:18:35.484Z,79.6
2022-10-22T20:20:37.681Z,87.1
2022-10-22T20:22:40.198Z,50.5
2022-10-22T20:28:49.544Z,70.7
2022-10-22T20:30:51.731Z,66.7
2022-10-22T20:32:53.904Z,76.1
2022-10-22T20:34:55.986Z,53.4
2022-10-22T20:36:58.179Z,57.5
2022-10-22T20:39:03.481Z,50.2
2022-10-22T20:41:05.594Z,71.6
2022-10-22T20:43:10.519Z,59.3
2022-10-22T20:44:10.506Z,46.2
2022-10-22T20:46:12.653Z,49.7
2022-10-22T20:48:14.838Z,50.6
2022-10-22T20:50:17.008Z,59.6
2022-10-22T20:52:22.247Z,52.4
2022-10-22T20:54:24.448Z,50.7
2022-10-22T20:56:26.600Z,42.7
2022-10-22T21:00:30.991Z,46.5
2022-10-22T21:02:33.169Z,36.1
2022-10-22T21:04:35.347Z,51.2
2022-10-22T21:06:40.675Z,62.3
2022-10-22T21:08:42.906Z,49.2
2022-10-22T21:10:45.200Z,46.4
2022-10-22T21:12:47.100Z,52.6
2022-10-22T21:14:49.198Z,61.6
2022-10-22T21:16:51.265Z,46.1
2022-10-22T21:18:53.362Z,59.3
2022-10-22T21:20:58.758Z,61.7
2022-10-22T21:23:00.964Z,68
2022-10-22T21:33:11.640Z,91.9
2022-10-22T21:37:19.282Z,103.2
2022-10-22T21:39:21.433Z,108.3
2022-10-22T21:41:50.319Z,95.1
2022-10-22T21:43:52.511Z,99.8
2022-10-22T21:45:54.588Z,88.8
2022-10-22T21:48:00.041Z,73.4
2022-10-22T21:50:02.194Z,76.5
2022-10-22T21:52:04.383Z,103.7
2022-10-22T21:54:06.538Z,97.1
2022-10-22T21:56:08.655Z,92.5
2022-10-22T21:58:10.828Z,81.3
2022-10-22T22:00:13.180Z,56.5
2022-10-22T22:02:18.528Z,68
2022-10-22T22:04:20.614Z,48.6
2022-10-22T22:06:22.827Z,76.2
2022-10-22T22:08:24.974Z,48.9
2022-10-22T22:10:27.085Z,50.2
2022-10-22T22:12:29.393Z,51
2022-10-22T22:14:31.354Z,63.7
2022-10-22T22:16:36.779Z,38.5
2022-10-22T22:18:38.987Z,65.2
2022-10-22T22:20:41.167Z,65.3
2022-10-22T22:24:45.528Z,51.7
2022-10-22T22:26:47.709Z,82.9
2022-10-22T22:28:49.876Z,39.4
2022-10-22T22:30:55.283Z,49.7
2022-10-22T22:32:57.414Z,44.6
2022-10-22T22:35:00.406Z,48.1
2022-10-22T22:36:03.111Z,49
2022-10-22T22:38:05.272Z,34.2
2022-10-22T22:40:07.340Z,41.3
2022-10-22T22:42:09.549Z,49.5
2022-10-22T22:46:17.145Z,40
2022-10-22T22:48:19.312Z,33.1
2022-10-22T22:50:21.501Z,50.5
2022-10-22T22:52:23.583Z,59.2
2022-10-22T22:54:25.666Z,44.7
2022-10-22T22:56:27.826Z,41.1
2022-10-22T22:58:33.245Z,41.6
2022-10-22T23:00:35.423Z,44.5
2022-10-22T23:02:37.494Z,41.1
2022-10-22T23:04:39.678Z,52.9
2022-10-22T23:06:41.759Z,43.3
2022-10-22T23:08:43.989Z,43.9
2022-10-22T23:10:46.006Z,44.2
2022-10-22T23:12:51.427Z,41.3
2022-10-22T23:14:53.600Z,50.1
2022-10-22T23:16:55.787Z,48.3
2022-10-22T23:18:57.973Z,49.5
2022-10-22T23:21:00.159Z,47.8
2022-10-22T23:23:02.338Z,39.6
2022-10-22T23:25:04.536Z,43.7
2022-10-22T23:27:09.831Z,47.7
2022-10-22T23:29:11.993Z,52.6
2022-10-22T23:31:14.172Z,43.7
2022-10-22T23:36:21.139Z,30.2
2022-10-22T23:38:23.332Z,47.7
2022-10-22T23:40:28.725Z,36.5
2022-10-22T23:42:30.841Z,53.5
2022-10-22T23:44:33.008Z,52
2022-10-22T23:46:35.216Z,57.9
2022-10-22T23:48:37.368Z,33.1
2022-10-22T23:50:39.545Z,39.4
2022-10-22T23:52:41.989Z,42.6
2022-10-22T23:54:47.155Z,54.4
2022-10-22T23:56:49.301Z,51.9
